.
WxDataArchive / Data Records for 2006-12-21
2006-12-20 December 2006 2006-12-22

Data Records for Thursday, 21 December 2006

Time	Temp	Chill	HIndex	Humid	Dewpt	 Wind 	HiWind	WindDir	Rain 	Barom 
-----	----	-----	------	-----	-----	------	------	-------	-----	----- 
00:00	37.6	37.6	37.6	92	35.5	0	1	112	0.00	30.239 
00:05	37.6	37.6	37.6	92	35.5	0	0	---	0.00	30.239 
00:10	37.6	37.6	37.6	93	35.8	0	1	112	0.00	30.239 
00:15	37.8	37.8	37.8	93	36.0	0	0	---	0.00	30.230 
00:20	37.6	37.6	37.6	93	35.8	0	0	---	0.00	30.230 
00:25	37.6	37.6	37.6	93	35.8	0	0	---	0.00	30.230 
00:30	37.6	37.6	37.6	93	35.8	0	0	---	0.00	30.224 
00:35	37.5	37.5	37.5	93	35.7	0	0	---	0.01	30.224 
00:40	37.5	37.5	37.5	93	35.7	0	1	112	0.00	30.224 
00:45	37.5	37.5	37.5	93	35.7	0	0	---	0.00	30.222 
00:50	37.5	37.5	37.5	93	35.7	0	2	112	0.00	30.222 
00:55	37.6	37.6	37.6	94	36.0	0	2	112	0.00	30.222 
01:00	37.6	37.6	37.6	94	36.0	0	2	112	0.00	30.215 
01:05	37.6	37.6	37.6	94	36.0	0	1	112	0.00	30.215 
01:10	37.6	37.6	37.6	94	36.0	0	0	---	0.01	30.215 
01:15	37.6	37.6	37.6	94	36.0	0	1	112	0.00	30.212 
01:20	37.6	37.6	37.6	94	36.0	0	1	112	0.00	30.212 
01:25	37.6	37.6	37.6	94	36.0	0	0	---	0.00	30.212 
01:30	37.6	37.6	37.6	94	36.0	0	1	112	0.00	30.206 
01:35	37.8	37.8	37.8	94	36.2	0	1	112	0.00	30.206 
01:40	37.8	37.8	37.8	94	36.2	0	1	112	0.00	30.206 
01:45	37.8	37.8	37.8	94	36.2	0	1	112	0.00	30.207 
01:50	37.8	37.8	37.8	94	36.2	0	2	112	0.00	30.207 
01:55	37.8	37.8	37.8	94	36.2	0	2	112	0.00	30.207 
02:00	37.8	37.8	37.8	94	36.2	1	2	112	0.00	30.207 
02:05	37.8	37.8	37.8	94	36.2	1	2	112	0.00	30.207 
02:10	37.8	37.8	37.8	94	36.2	1	2	112	0.01	30.207 
02:15	37.8	37.8	37.8	94	36.2	0	2	112	0.00	30.221 
02:20	37.9	37.9	37.9	94	36.3	0	1	112	0.00	30.221 
02:25	37.9	37.9	37.9	94	36.3	0	1	112	0.00	30.221 
02:30	37.9	37.9	37.9	94	36.3	0	1	112	0.00	30.230 
02:35	37.9	37.9	37.9	94	36.3	0	1	112	0.00	30.230 
02:40	37.9	37.9	37.9	94	36.3	0	1	112	0.00	30.230 
02:45	37.9	37.9	37.9	94	36.3	0	1	112	0.01	30.230 
02:50	37.9	37.9	37.9	94	36.3	0	1	112	0.01	30.230 
02:55	37.9	37.9	37.9	94	36.3	0	1	112	0.00	30.230 
03:00	37.9	37.9	37.9	95	36.6	0	1	112	0.00	30.236 
03:05	37.9	37.9	37.9	95	36.6	0	1	112	0.00	30.236 
03:10	38.0	38.0	38.0	95	36.7	0	1	112	0.00	30.236 
03:15	38.0	38.0	38.0	95	36.7	0	1	112	0.00	30.244 
03:20	38.0	38.0	38.0	95	36.7	0	1	112	0.00	30.244 
03:25	38.0	38.0	38.0	95	36.7	1	2	112	0.00	30.244 
03:30	38.2	38.2	38.2	95	36.9	0	2	112	0.01	30.238 
03:35	38.2	38.2	38.2	95	36.9	1	2	112	0.00	30.238 
03:40	38.2	38.2	38.2	95	36.9	0	2	112	0.00	30.238 
03:45	38.2	38.2	38.2	95	36.9	1	2	112	0.00	30.236 
03:50	38.2	38.2	38.2	96	37.2	0	3	112	0.00	30.236 
03:55	38.0	38.0	38.0	96	37.0	1	3	112	0.01	30.236 
04:00	38.0	38.0	38.0	96	37.0	1	2	112	0.00	30.236 
04:05	38.2	38.2	38.2	96	37.2	0	2	112	0.01	30.236 
04:10	38.2	38.2	38.2	96	37.2	1	2	112	0.00	30.236 
04:15	38.2	38.2	38.2	96	37.2	1	3	112	0.00	30.231 
04:20	38.2	38.2	38.2	96	37.2	1	2	112	0.01	30.231 
04:25	38.2	38.2	38.2	96	37.2	1	3	112	0.01	30.231 
04:30	38.2	38.2	38.2	96	37.2	1	3	112	0.00	30.238 
04:35	38.2	38.2	38.2	96	37.2	1	3	112	0.00	30.238 
04:40	38.2	38.2	38.2	96	37.2	2	4	90	0.01	30.238 
04:45	38.2	38.2	38.2	96	37.2	2	4	90	0.00	30.239 
04:50	38.2	38.2	38.2	96	37.2	1	4	90	0.00	30.239 
04:55	38.2	38.2	38.2	96	37.2	1	3	90	0.01	30.239 
05:00	38.2	38.2	38.2	96	37.2	1	3	90	0.00	30.237 
05:05	38.2	38.2	38.2	96	37.2	1	4	90	0.01	30.237 
05:10	38.2	38.2	38.2	96	37.2	1	2	90	0.00	30.237 
05:15	38.2	38.2	38.2	96	37.2	1	2	90	0.00	30.238 
05:20	38.3	38.3	38.3	96	37.3	1	3	90	0.01	30.238 
05:25	38.3	38.3	38.3	96	37.3	1	3	90	0.00	30.238 
05:30	38.3	38.3	38.3	96	37.3	1	3	90	0.00	30.235 
05:35	38.3	38.3	38.3	96	37.3	1	3	90	0.00	30.235 
05:40	38.5	38.5	38.5	96	37.5	1	3	90	0.00	30.235 
05:45	38.5	38.5	38.5	96	37.5	1	2	90	0.00	30.230 
05:50	38.5	38.5	38.5	96	37.5	1	4	90	0.00	30.230 
05:55	38.5	38.5	38.5	97	37.7	1	3	90	0.00	30.230 
06:00	38.6	38.6	38.6	97	37.8	1	3	90	0.01	30.236 
06:05	38.6	38.6	38.6	97	37.8	1	2	90	0.00	30.236 
06:10	38.6	38.6	38.6	97	37.8	1	3	90	0.00	30.236 
06:15	38.6	38.6	38.6	97	37.8	1	4	112	0.00	30.238 
06:20	38.8	38.8	38.8	97	38.0	1	3	112	0.00	30.238 
06:25	38.8	38.8	38.8	97	38.0	1	3	112	0.00	30.238 
06:30	38.8	38.8	38.8	97	38.0	1	3	112	0.00	30.239 
06:35	38.9	38.9	38.9	97	38.1	1	3	112	0.00	30.239 
06:40	38.9	38.9	38.9	97	38.1	1	4	90	0.01	30.239 
06:45	38.9	38.9	38.9	97	38.1	1	3	90	0.00	30.239 
06:50	39.1	39.1	39.1	97	38.3	1	3	112	0.00	30.239 
06:55	39.1	39.1	39.1	97	38.3	1	3	112	0.00	30.239 
07:00	39.1	39.1	39.1	97	38.3	1	3	112	0.00	30.241 
07:05	39.1	39.1	39.1	97	38.3	2	5	112	0.01	30.241 
07:10	39.1	39.1	39.1	97	38.3	2	6	90	0.00	30.241 
07:15	39.1	39.1	39.1	97	38.3	2	5	112	0.00	30.245 
07:20	39.1	39.1	39.1	97	38.3	2	4	112	0.00	30.245 
07:25	39.1	39.1	39.1	97	38.3	2	4	112	0.01	30.245 
07:30	39.1	39.1	39.1	97	38.3	2	6	112	0.00	30.246 
07:35	39.1	39.1	39.1	97	38.3	2	3	112	0.00	30.246 
07:40	39.1	39.1	39.1	97	38.3	2	5	90	0.00	30.246 
07:45	39.2	39.2	39.2	97	38.4	2	3	90	0.01	30.250 
07:50	39.2	39.2	39.2	97	38.4	2	3	90	0.00	30.250 
07:55	39.2	39.2	39.2	97	38.4	2	3	90	0.00	30.250 
08:00	39.2	39.2	39.2	97	38.4	2	5	112	0.01	30.248 
08:05	39.2	39.2	39.2	97	38.4	2	4	112	0.00	30.248 
08:10	39.2	39.2	39.2	97	38.4	2	5	90	0.00	30.248 
08:15	39.2	39.2	39.2	97	38.4	2	5	90	0.00	30.243 
08:20	39.2	39.2	39.2	97	38.4	2	4	112	0.01	30.243 
08:25	39.2	39.2	39.2	97	38.4	3	5	112	0.00	30.243 
08:30	39.2	39.2	39.2	97	38.4	2	5	90	0.00	30.242 
08:35	39.2	39.2	39.2	97	38.4	2	4	68	0.00	30.242 
08:40	39.2	39.2	39.2	97	38.4	2	5	112	0.00	30.242 
08:45	39.2	39.2	39.2	97	38.4	2	5	112	0.00	30.238 
08:50	39.3	39.3	39.3	97	38.5	2	5	112	0.00	30.238 
08:55	39.3	39.3	39.3	97	38.5	3	6	112	0.01	30.238 
09:00	39.3	39.3	39.3	97	38.5	3	6	112	0.00	30.239 
09:05	39.3	39.3	39.3	97	38.5	3	6	112	0.00	30.239 
09:10	39.5	39.5	39.5	97	38.7	3	5	112	0.00	30.239 
09:15	39.5	39.5	39.5	97	38.7	3	5	112	0.00	30.236 
09:20	39.5	39.5	39.5	97	38.7	2	5	90	0.00	30.236 
09:25	39.6	39.6	39.6	97	38.8	3	5	90	0.00	30.236 
09:30	39.6	39.6	39.6	97	38.8	3	7	112	0.00	30.237 
09:35	39.6	39.6	39.6	97	38.8	3	5	112	0.00	30.237 
09:40	39.8	39.8	39.8	97	39.0	3	5	90	0.00	30.237 
09:45	39.8	39.8	39.8	97	39.0	2	4	90	0.00	30.238 
09:50	39.9	39.9	39.9	97	39.1	2	5	112	0.00	30.238 
09:55	39.9	39.9	39.9	97	39.1	2	6	112	0.00	30.238 
10:00	40.1	40.1	40.1	97	39.3	3	6	112	0.00	30.238 
10:05	40.1	40.1	40.1	97	39.3	3	6	90	0.00	30.238 
10:10	40.2	40.2	40.2	97	39.4	2	5	112	0.00	30.238 
10:15	40.2	40.2	40.2	97	39.4	2	5	90	0.00	30.248 
10:20	40.3	40.3	40.3	97	39.5	3	6	112	0.00	30.248 
10:25	40.3	40.3	40.3	97	39.5	2	5	112	0.00	30.248 
10:30	40.5	40.5	40.5	97	39.7	2	5	112	0.00	30.247 
10:35	40.5	40.5	40.5	97	39.7	2	4	112	0.01	30.247 
10:40	40.6	40.6	40.6	97	39.8	2	5	112	0.00	30.247 
10:45	40.6	40.6	40.6	97	39.8	3	5	90	0.00	30.239 
10:50	40.6	40.6	40.6	97	39.8	2	5	90	0.00	30.239 
10:55	40.8	40.8	40.8	97	40.0	2	6	90	0.00	30.239 
11:00	40.8	40.8	40.8	97	40.0	2	4	90	0.00	30.246 
11:05	40.8	40.8	40.8	97	40.0	3	5	112	0.00	30.246 
11:10	40.8	40.8	40.8	97	40.0	2	5	112	0.00	30.246 
11:15	40.9	40.9	40.9	97	40.1	2	4	112	0.00	30.233 
11:20	40.9	40.9	40.9	97	40.1	3	6	112	0.00	30.233 
11:25	41.1	41.1	41.1	97	40.3	2	5	90	0.00	30.233 
11:30	41.1	38.6	41.1	97	40.3	4	7	112	0.00	30.220 
11:35	41.2	41.2	41.2	97	40.4	3	6	90	0.00	30.220 
11:40	41.2	41.2	41.2	97	40.4	3	6	90	0.00	30.220 
11:45	41.3	41.3	41.3	97	40.5	3	5	112	0.00	30.207 
11:50	41.5	41.5	41.5	97	40.7	3	6	90	0.00	30.207 
11:55	41.5	41.5	41.5	97	40.7	3	6	112	0.00	30.207 
12:00	41.6	41.6	41.6	97	40.8	3	6	90	0.00	30.207 
12:05	41.6	41.6	41.6	97	40.8	3	6	90	0.00	30.207 
12:10	41.6	39.2	41.6	97	40.8	4	8	90	0.00	30.207 
12:15	41.6	41.6	41.6	97	40.8	3	7	112	0.00	30.196 
12:20	41.8	41.8	41.8	97	41.0	3	7	90	0.00	30.196 
12:25	41.8	41.8	41.8	96	40.7	3	5	90	0.00	30.196 
12:30	41.9	41.9	41.9	97	41.1	3	5	90	0.00	30.187 
12:35	41.9	41.9	41.9	97	41.1	3	6	112	0.00	30.187 
12:40	42.1	42.1	42.1	97	41.3	3	8	112	0.00	30.187 
12:45	42.1	39.7	42.1	96	41.0	4	6	112	0.00	30.177 
12:50	42.2	42.2	42.2	96	41.1	3	6	112	0.00	30.177 
12:55	42.2	42.2	42.2	96	41.1	3	7	112	0.01	30.177 
13:00	42.3	40.0	42.3	96	41.2	4	6	112	0.00	30.172 
13:05	42.3	42.3	42.3	96	41.2	3	7	112	0.00	30.172 
13:10	42.5	42.5	42.5	96	41.4	3	7	112	0.00	30.172 
13:15	42.5	42.5	42.5	96	41.4	3	6	112	0.00	30.157 
13:20	42.6	42.6	42.6	96	41.5	3	7	112	0.00	30.157 
13:25	42.8	42.8	42.8	96	41.7	3	6	90	0.00	30.157 
13:30	42.8	42.8	42.8	96	41.7	3	6	112	0.00	30.156 
13:35	42.8	42.8	42.8	97	42.0	3	6	112	0.00	30.156 
13:40	42.9	42.9	42.9	96	41.8	3	6	112	0.00	30.156 
13:45	42.9	42.9	42.9	96	41.8	3	6	112	0.00	30.138 
13:50	42.9	42.9	42.9	96	41.8	3	7	90	0.00	30.138 
13:55	42.9	42.9	42.9	97	42.1	3	6	112	0.00	30.138 
14:00	43.1	40.9	43.1	96	42.0	4	7	112	0.00	30.142 
14:05	43.1	43.1	43.1	96	42.0	2	4	90	0.00	30.142 
14:10	43.2	43.2	43.2	97	42.4	3	6	112	0.01	30.142 
14:15	43.2	43.2	43.2	97	42.4	3	5	112	0.00	30.144 
14:20	43.2	43.2	43.2	97	42.4	2	4	112	0.00	30.144 
14:25	43.2	43.2	43.2	97	42.4	2	4	112	0.00	30.144 
14:30	43.2	43.2	43.2	97	42.4	3	6	112	0.00	30.138 
14:35	43.2	43.2	43.2	97	42.4	3	7	112	0.00	30.138 
14:40	43.2	43.2	43.2	97	42.4	3	6	112	0.00	30.138 
14:45	43.2	43.2	43.2	97	42.4	3	6	90	0.01	30.134 
14:50	43.1	43.1	43.1	97	42.3	3	7	112	0.00	30.134 
14:55	43.1	43.1	43.1	97	42.3	3	7	90	0.00	30.134 
15:00	42.9	42.9	42.9	97	42.1	3	8	112	0.00	30.125 
15:05	42.9	40.7	42.9	97	42.1	4	7	112	0.00	30.125 
15:10	42.9	42.9	42.9	97	42.1	3	7	90	0.00	30.125 
15:15	42.9	42.9	42.9	97	42.1	3	7	112	0.01	30.125 
15:20	42.9	42.9	42.9	97	42.1	3	7	90	0.00	30.125 
15:25	42.8	42.8	42.8	97	42.0	3	7	90	0.00	30.125 
15:30	42.8	40.6	42.8	97	42.0	4	7	90	0.00	30.123 
15:35	42.8	42.8	42.8	97	42.0	3	7	112	0.00	30.123 
15:40	42.8	42.8	42.8	97	42.0	3	6	90	0.00	30.123 
15:45	42.8	40.6	42.8	97	42.0	4	10	90	0.00	30.124 
15:50	42.8	42.8	42.8	97	42.0	3	7	112	0.00	30.124 
15:55	42.8	40.6	42.8	97	42.0	4	10	112	0.01	30.124 
16:00	42.8	42.8	42.8	97	42.0	3	7	112	0.00	30.136 
16:05	42.6	42.6	42.6	97	41.8	3	8	112	0.00	30.136 
16:10	42.6	40.3	42.6	97	41.8	4	9	112	0.00	30.136 
16:15	42.6	40.3	42.6	97	41.8	4	9	90	0.01	30.133 
16:20	42.6	40.3	42.6	97	41.8	4	7	90	0.01	30.133 
16:25	42.5	40.2	42.5	97	41.7	4	9	90	0.00	30.133 
16:30	42.5	40.2	42.5	97	41.7	4	8	90	0.01	30.124 
16:35	42.5	42.5	42.5	97	41.7	3	6	90	0.00	30.124 
16:40	42.5	40.2	42.5	97	41.7	4	7	90	0.00	30.124 
16:45	42.5	42.5	42.5	97	41.7	3	6	90	0.00	30.138 
16:50	42.5	42.5	42.5	97	41.7	3	6	90	0.00	30.138 
16:55	42.5	42.5	42.5	97	41.7	3	7	90	0.00	30.138 
17:00	42.5	42.5	42.5	97	41.7	3	5	90	0.00	30.135 
17:05	42.5	42.5	42.5	97	41.7	3	6	90	0.00	30.135 
17:10	42.5	40.2	42.5	97	41.7	4	10	90	0.00	30.135 
17:15	42.5	40.2	42.5	97	41.7	4	9	90	0.00	30.120 
17:20	42.5	40.2	42.5	97	41.7	4	11	112	0.00	30.120 
17:25	42.5	42.5	42.5	97	41.7	3	7	90	0.00	30.120 
17:30	42.5	40.2	42.5	97	41.7	4	7	90	0.00	30.119 
17:35	42.5	42.5	42.5	97	41.7	3	7	90	0.01	30.119 
17:40	42.5	40.2	42.5	97	41.7	4	7	90	0.00	30.119 
17:45	42.6	40.3	42.6	97	41.8	4	10	90	0.00	30.120 
17:50	42.6	38.9	42.6	97	41.8	6	11	90	0.00	30.120 
17:55	42.6	40.3	42.6	97	41.8	4	7	112	0.00	30.120 
18:00	42.6	42.6	42.6	97	41.8	3	8	112	0.00	30.118 
18:05	42.6	39.5	42.6	97	41.8	5	10	112	0.00	30.118 
18:10	42.6	40.3	42.6	97	41.8	4	10	90	0.00	30.118 
18:15	42.6	40.3	42.6	97	41.8	4	9	112	0.00	30.109 
18:20	42.8	40.6	42.8	97	42.0	4	7	112	0.01	30.109 
18:25	42.8	42.8	42.8	97	42.0	3	6	112	0.01	30.109 
18:30	42.8	42.8	42.8	97	42.0	2	5	112	0.00	30.115 
18:35	42.9	42.9	42.9	97	42.1	3	5	112	0.00	30.115 
18:40	42.9	42.9	42.9	97	42.1	3	9	112	0.00	30.115 
18:45	43.1	40.9	43.1	97	42.3	4	8	112	0.01	30.109 
18:50	43.1	40.1	43.1	97	42.3	5	10	112	0.00	30.109 
18:55	43.1	40.1	43.1	97	42.3	5	10	112	0.01	30.109 
19:00	43.2	41.0	43.2	97	42.4	4	6	112	0.01	30.105 
19:05	43.2	41.0	43.2	97	42.4	4	9	112	0.01	30.105 
19:10	43.3	41.1	43.3	97	42.5	4	9	112	0.00	30.105 
19:15	43.5	43.5	43.5	97	42.7	3	6	112	0.01	30.106 
19:20	43.5	43.5	43.5	97	42.7	3	6	112	0.00	30.106 
19:25	43.5	43.5	43.5	97	42.7	3	6	90	0.00	30.106 
19:30	43.6	43.6	43.6	98	43.1	3	6	112	0.00	30.105 
19:35	43.6	43.6	43.6	98	43.1	3	6	112	0.01	30.105 
19:40	43.8	43.8	43.8	98	43.3	3	6	112	0.00	30.105 
19:45	43.8	43.8	43.8	98	43.3	3	6	90	0.00	30.095 
19:50	43.9	41.8	43.9	98	43.4	4	7	112	0.00	30.095 
19:55	43.9	43.9	43.9	98	43.4	3	6	112	0.00	30.095 
20:00	44.1	42.1	44.1	98	43.6	4	6	112	0.00	30.091 
20:05	44.1	44.1	44.1	98	43.6	3	5	112	0.00	30.091 
20:10	44.1	42.1	44.1	98	43.6	4	10	90	0.00	30.091 
20:15	44.1	44.1	44.1	98	43.6	3	6	90	0.00	30.084 
20:20	44.2	44.2	44.2	98	43.7	3	5	112	0.00	30.084 
20:25	44.2	44.2	44.2	98	43.7	2	6	90	0.00	30.084 
20:30	44.3	44.3	44.3	98	43.8	3	4	112	0.00	30.081 
20:35	44.3	44.3	44.3	98	43.8	2	5	90	0.00	30.081 
20:40	44.3	44.3	44.3	98	43.8	3	6	90	0.00	30.081 
20:45	44.5	44.5	44.5	98	44.0	2	5	112	0.00	30.079 
20:50	44.5	44.5	44.5	98	44.0	2	5	112	0.00	30.079 
20:55	44.5	44.5	44.5	98	44.0	2	4	90	0.00	30.079 
21:00	44.6	44.6	44.6	98	44.1	2	4	112	0.00	30.077 
21:05	44.6	44.6	44.6	98	44.1	2	4	90	0.00	30.077 
21:10	44.6	44.6	44.6	98	44.1	2	6	90	0.00	30.077 
21:15	44.6	44.6	44.6	98	44.1	2	5	90	0.00	30.072 
21:20	44.8	44.8	44.8	98	44.3	2	3	112	0.00	30.072 
21:25	44.8	44.8	44.8	98	44.3	2	4	90	0.01	30.072 
21:30	44.9	44.9	44.9	98	44.4	2	5	90	0.00	30.066 
21:35	44.9	44.9	44.9	98	44.4	2	4	112	0.00	30.066 
21:40	44.9	44.9	44.9	98	44.4	2	5	90	0.00	30.066 
21:45	44.9	44.9	44.9	98	44.4	2	4	90	0.00	30.057 
21:50	44.9	44.9	44.9	98	44.4	1	3	45	0.00	30.057 
21:55	44.9	44.9	44.9	98	44.4	2	5	90	0.00	30.057 
22:00	44.9	44.9	44.9	98	44.4	2	4	112	0.00	30.042 
22:05	45.1	45.1	45.1	98	44.6	1	3	112	0.00	30.042 
22:10	45.1	45.1	45.1	98	44.6	2	5	112	0.00	30.042 
22:15	45.2	45.2	45.2	98	44.7	2	5	90	0.00	30.039 
22:20	45.2	45.2	45.2	98	44.7	1	4	112	0.00	30.039 
22:25	45.4	45.4	45.4	98	44.9	1	2	90	0.00	30.039 
22:30	45.4	45.4	45.4	98	44.9	1	3	90	0.00	30.039 
22:35	45.4	45.4	45.4	98	44.9	1	2	112	0.00	30.039 
22:40	45.5	45.5	45.5	98	45.0	0	3	90	0.00	30.039 
22:45	45.5	45.5	45.5	98	45.0	1	2	90	0.00	30.039 
22:50	45.7	45.7	45.7	98	45.2	1	3	90	0.00	30.039 
22:55	45.7	45.7	45.7	98	45.2	2	4	90	0.00	30.039 
23:00	45.8	45.8	45.8	98	45.3	2	4	90	0.00	30.028 
23:05	46.0	46.0	46.0	98	45.5	2	4	90	0.00	30.028 
23:10	46.0	46.0	46.0	98	45.5	2	6	90	0.01	30.028 
23:15	46.0	46.0	46.0	99	45.7	1	3	112	0.00	30.022 
23:20	46.1	46.1	46.1	99	45.8	1	4	112	0.00	30.022 
23:25	46.1	46.1	46.1	99	45.8	1	3	90	0.00	30.022 
23:30	46.1	46.1	46.1	99	45.8	2	4	112	0.00	30.026 
23:35	46.2	46.2	46.2	99	45.9	1	2	90	0.00	30.026 
23:40	46.2	46.2	46.2	99	45.9	1	3	90	0.00	30.026 
23:45	46.2	46.2	46.2	99	45.9	1	3	90	0.00	30.021 
23:50	46.2	46.2	46.2	99	45.9	1	3	90	0.00	30.021 
23:55	46.4	46.4	46.4	99	46.1	1	3	90	0.00	30.021 

CoCoRaHS
IN-AL-39
A2 Web Hosting
Creative Commons License
GoDaddy
Look for:

loaded 2017-12-13 19:51:36 • last modified 2010-11-18 10:43:29
Privacy PolicyDisclaimer
• wx.awcolley.com is powered by PmWiki v.2002016 •
• all content (unless otherwise noted) © 2017 A W Colley